BIHY weather

Hrisey Airport
Hrisey, Northeastern Region, Iceland

Public forecast

Using degrees Celsius for public forecast. Weather courtesy of forecast.io.

METAR (pilot weather report)

Closest report is Akureyri Airport, 21.9 nm (40.6 km) SSE. Retrieved 2019/06/26 07:00 UTC (5 minutes ago):

BIAR 260700Z 17019G31KT CAVOK 15/06 Q1022

TAF (pilot weather forecast)

Closest forecast is Akureyri Airport, 21.9 nm (40.6 km) SSE. Retrieved 2019/06/26 06:45 UTC (20 minutes ago):

TAF TAF BIAR 260439Z 2606/2706 20015G25KT 9999 SCT050 TX20/2616Z TN13/2703Z